Time;durP1;ratioP1;P1;durP2;ratioP2;P2;SDS_P1;SDS_P2;PMS_P1;PMS_P2;Temp;Humidity;BMP_temperature;BMP_pressure;BME280_temperature;BME280_humidity;BME280_pressure;Samples;Min_cycle;Max_cycle;Signal;HPM_P1;HPM_P2
2022/05/31 00:02:21;;;;;;;;;;;;;;;;;;5022489;28;87880;-43
2022/05/31 00:04:47;;;;;;;;;;;;;;;;;;5022916;28;87194;-45
2022/05/31 00:07:13;;;;;;;;;;;;;;;;;;5022561;28;87530;-45
2022/05/31 00:09:39;;;;;;;;;;;;;;;;;;5025216;28;87836;-47
2022/05/31 00:12:06;;;;;;;;;;;;;;;;;;5022560;28;87904;-43
2022/05/31 00:14:32;;;;;;;;;;;;;;;;;;5022906;28;87193;-44
2022/05/31 00:16:59;;;;;;;;;;;;;;;;;;5022387;28;87167;-45
2022/05/31 00:19:25;;;;;;;;;;;;;;;;;;5022399;28;88473;-45
2022/05/31 00:21:51;;;;;;;;;;;;;;;;;;5021443;28;88832;-43
2022/05/31 00:24:17;;;;;;;;;;;;;;;;;;5022711;28;87168;-45
2022/05/31 00:26:43;;;;;;;;;;;;;;;;;;5022765;28;87313;-43
2022/05/31 00:29:09;;;;;;;;;;;;;;;;;;5022077;28;89239;-44
2022/05/31 00:31:35;;;;;;;;;;;;;;;;;;5025552;28;87232;-46
2022/05/31 00:34:01;;;;;;;;;;;;;;;;;;5022065;28;89863;-45
2022/05/31 00:36:27;;;;;;;;;;;;;;;;;;5022082;28;87138;-45
2022/05/31 00:38:52;;;;;;;;;;;;;;;;;;5023081;28;86968;-44
2022/05/31 00:41:24;;;;;;;;;;;;;;;;;;5022191;28;87985;-45
2022/05/31 00:43:50;;;;;;;;;;;;;;;;;;5022153;28;87137;-45
2022/05/31 00:46:16;;;;;;;;;;;;;;;;;;5021875;28;88012;-44
2022/05/31 00:48:42;;;;;;;;;;;;;;;;;;5022089;28;87818;-45
2022/05/31 00:51:08;;;;;;;;;;;;;;;;;;5029709;28;87291;-45
2022/05/31 00:53:34;;;;;;;;;;;;;;;;;;5044983;27;88227;-44
2022/05/31 00:56:00;;;;;;;;;;;;;;;;;;5042366;27;87184;-45
2022/05/31 00:58:26;;;;;;;;;;;;;;;;;;5042535;27;87065;-44
2022/05/31 01:00:51;;;;;;;;;;;;;;;;;;5041944;27;88188;-43
2022/05/31 01:03:17;;;;;;;;;;;;;;;;;;5042843;27;86768;-45
2022/05/31 01:05:43;;;;;;;;;;;;;;;;;;5042054;27;87071;-43
2022/05/31 01:08:10;;;;;;;;;;;;;;;;;;5044882;27;87842;-46
2022/05/31 01:10:36;;;;;;;;;;;;;;;;;;5044914;28;87904;-43
2022/05/31 01:13:01;;;;;;;;;;;;;;;;;;5048320;27;87874;-45
2022/05/31 01:15:27;;;;;;;;;;;;;;;;;;5045463;27;87249;-44
2022/05/31 01:17:53;;;;;;;;;;;;;;;;;;5043991;28;90070;-44
2022/05/31 01:20:19;;;;;;;;;;;;;;;;;;5045122;27;87386;-44
2022/05/31 01:22:45;;;;;;;;;;;;;;;;;;5045327;28;87219;-44
2022/05/31 01:25:11;;;;;;;;;;;;;;;;;;5045251;27;88598;-45
2022/05/31 01:27:37;;;;;;;;;;;;;;;;;;5045719;28;87241;-44
2022/05/31 01:30:03;;;;;;;;;;;;;;;;;;5045423;27;87273;-45
2022/05/31 01:32:29;;;;;;;;;;;;;;;;;;5045476;27;86959;-44
2022/05/31 01:34:55;;;;;;;;;;;;;;;;;;5046727;27;90104;-46
2022/05/31 01:37:21;;;;;;;;;;;;;;;;;;5045265;27;87453;-44
2022/05/31 01:39:46;;;;;;;;;;;;;;;;;;5045020;27;87184;-45
2022/05/31 01:42:12;;;;;;;;;;;;;;;;;;5045226;27;87103;-45
2022/05/31 01:44:38;;;;;;;;;;;;;;;;;;5045070;28;88332;-45
2022/05/31 01:47:04;;;;;;;;;;;;;;;;;;5044896;27;88141;-43
2022/05/31 01:49:30;;;;;;;;;;;;;;;;;;5045097;27;87802;-44
2022/05/31 01:51:56;;;;;;;;;;;;;;;;;;5045195;27;86685;-43
2022/05/31 01:54:22;;;;;;;;;;;;;;;;;;5044587;27;88147;-45
2022/05/31 01:56:48;;;;;;;;;;;;;;;;;;5047892;27;87172;-45
2022/05/31 01:59:14;;;;;;;;;;;;;;;;;;5043940;27;89087;-43
2022/05/31 02:01:39;;;;;;;;;;;;;;;;;;5045066;27;87411;-44
2022/05/31 02:04:05;;;;;;;;;;;;;;;;;;5044659;27;86856;-45
2022/05/31 02:06:31;;;;;;;;;;;;;;;;;;5044315;27;87771;-43
2022/05/31 02:08:57;;;;;;;;;;;;;;;;;;5044885;27;87066;-45
2022/05/31 02:11:23;;;;;;;;;;;;;;;;;;5044569;27;88472;-45
2022/05/31 02:13:49;;;;;;;;;;;;;;;;;;5044405;27;88124;-42
2022/05/31 02:16:15;;;;;;;;;;;;;;;;;;5045212;27;86566;-46
2022/05/31 02:21:25;;;;;;;;;;;;;;;;;;5044867;28;87024;-45
2022/05/31 02:23:51;;;;;;;;;;;;;;;;;;5043767;27;87798;-44
2022/05/31 02:26:17;;;;;;;;;;;;;;;;;;5044292;27;88038;-44
2022/05/31 02:28:43;;;;;;;;;;;;;;;;;;5044919;27;87566;-43
2022/05/31 02:31:09;;;;;;;;;;;;;;;;;;5044507;27;86991;-46
2022/05/31 02:33:35;;;;;;;;;;;;;;;;;;5044013;27;88348;-44
2022/05/31 02:36:01;;;;;;;;;;;;;;;;;;5044247;27;87244;-44
2022/05/31 02:38:26;;;;;;;;;;;;;;;;;;5044332;27;86920;-42
2022/05/31 02:40:52;;;;;;;;;;;;;;;;;;5047312;27;87217;-43
2022/05/31 02:43:18;;;;;;;;;;;;;;;;;;5044353;27;86991;-42
2022/05/31 02:45:45;;;;;;;;;;;;;;;;;;5043693;28;89410;-45
2022/05/31 02:48:11;;;;;;;;;;;;;;;;;;5043233;27;88134;-44
2022/05/31 02:50:37;;;;;;;;;;;;;;;;;;5043545;27;87978;-46
2022/05/31 02:53:03;;;;;;;;;;;;;;;;;;5044030;27;87869;-44
2022/05/31 02:55:29;;;;;;;;;;;;;;;;;;5043923;27;88684;-45
2022/05/31 02:57:55;;;;;;;;;;;;;;;;;;5044114;28;87079;-43
2022/05/31 03:00:22;;;;;;;;;;;;;;;;;;5043736;27;87140;-45
2022/05/31 03:02:47;;;;;;;;;;;;;;;;;;5046678;27;87159;-43
2022/05/31 03:05:13;;;;;;;;;;;;;;;;;;5042887;28;87835;-44
2022/05/31 03:07:39;;;;;;;;;;;;;;;;;;5043520;27;87191;-45
2022/05/31 03:10:05;;;;;;;;;;;;;;;;;;5043980;27;87029;-42
2022/05/31 03:12:31;;;;;;;;;;;;;;;;;;5042671;27;89054;-46
2022/05/31 03:14:57;;;;;;;;;;;;;;;;;;5043563;27;87152;-44
2022/05/31 03:17:25;;;;;;;;;;;;;;;;;;5043393;27;87013;-43
2022/05/31 03:19:51;;;;;;;;;;;;;;;;;;5043020;27;89227;-45
2022/05/31 03:22:17;;;;;;;;;;;;;;;;;;5046586;27;87273;-43
2022/05/31 03:24:43;;;;;;;;;;;;;;;;;;5043266;27;87882;-44
2022/05/31 03:27:09;;;;;;;;;;;;;;;;;;5043765;27;87297;-43
2022/05/31 03:29:35;;;;;;;;;;;;;;;;;;5043239;27;88229;-44
2022/05/31 03:32:01;;;;;;;;;;;;;;;;;;5042136;27;88028;-44
2022/05/31 03:34:27;;;;;;;;;;;;;;;;;;5043521;27;87247;-43
2022/05/31 03:36:53;;;;;;;;;;;;;;;;;;5042425;27;88313;-44
2022/05/31 03:39:18;;;;;;;;;;;;;;;;;;5043035;27;88020;-45
2022/05/31 03:41:44;;;;;;;;;;;;;;;;;;5043430;27;87400;-44
2022/05/31 03:44:10;;;;;;;;;;;;;;;;;;5045877;27;87487;-45
2022/05/31 03:46:36;;;;;;;;;;;;;;;;;;5042968;27;87325;-44
2022/05/31 03:49:02;;;;;;;;;;;;;;;;;;5043003;27;87394;-43
2022/05/31 03:51:28;;;;;;;;;;;;;;;;;;5042456;28;89467;-44
2022/05/31 03:53:54;;;;;;;;;;;;;;;;;;5043623;27;86251;-44
2022/05/31 03:56:20;;;;;;;;;;;;;;;;;;5043113;27;87071;-46
2022/05/31 03:58:46;;;;;;;;;;;;;;;;;;5042868;27;87904;-45
2022/05/31 04:01:12;;;;;;;;;;;;;;;;;;5042415;27;88151;-43
2022/05/31 04:03:38;;;;;;;;;;;;;;;;;;5043104;28;87946;-46
2022/05/31 04:06:04;;;;;;;;;;;;;;;;;;5045111;27;88013;-46
2022/05/31 04:08:29;;;;;;;;;;;;;;;;;;5043127;27;86981;-44
2022/05/31 04:10:55;;;;;;;;;;;;;;;;;;5042687;27;87937;-45
2022/05/31 04:13:22;;;;;;;;;;;;;;;;;;5042987;27;87128;-42
2022/05/31 04:15:48;;;;;;;;;;;;;;;;;;5041151;28;90149;-46
2022/05/31 04:18:15;;;;;;;;;;;;;;;;;;5043078;27;87272;-44
2022/05/31 04:20:43;;;;;;;;;;;;;;;;;;5042435;27;87047;-44
2022/05/31 04:25:53;;;;;;;;;;;;;;;;;;5041263;28;87960;-45
2022/05/31 04:28:19;;;;;;;;;;;;;;;;;;5045745;27;87247;-43
2022/05/31 04:30:45;;;;;;;;;;;;;;;;;;5042552;27;87601;-45
2022/05/31 04:33:11;;;;;;;;;;;;;;;;;;5042798;27;87262;-47
2022/05/31 04:35:37;;;;;;;;;;;;;;;;;;5041035;28;89556;-45
2022/05/31 04:38:03;;;;;;;;;;;;;;;;;;5042155;27;88176;-43
2022/05/31 04:40:29;;;;;;;;;;;;;;;;;;5042528;27;87377;-47
2022/05/31 04:42:55;;;;;;;;;;;;;;;;;;5045843;27;86906;-48
2022/05/31 04:45:20;;;;;;;;;;;;;;;;;;5045697;27;87996;-45
2022/05/31 04:47:46;;;;;;;;;;;;;;;;;;5046143;27;87155;-43
2022/05/31 04:50:12;;;;;;;;;;;;;;;;;;5048184;27;87836;-46
2022/05/31 04:52:38;;;;;;;;;;;;;;;;;;5045968;27;87071;-47
2022/05/31 04:55:04;;;;;;;;;;;;;;;;;;5045825;27;86950;-44
2022/05/31 04:57:30;;;;;;;;;;;;;;;;;;5045570;27;87901;-46
2022/05/31 04:59:56;;;;;;;;;;;;;;;;;;5044509;28;87450;-45
2022/05/31 05:02:22;;;;;;;;;;;;;;;;;;5046027;27;86963;-45
2022/05/31 05:04:47;;;;;;;;;;;;;;;;;;5045325;27;87239;-43
2022/05/31 05:07:13;;;;;;;;;;;;;;;;;;5046010;27;86232;-45
2022/05/31 05:09:39;;;;;;;;;;;;;;;;;;5045914;27;86937;-43
2022/05/31 05:12:05;;;;;;;;;;;;;;;;;;5048187;27;87045;-43
2022/05/31 05:14:31;;;;;;;;;;;;;;;;;;5044573;27;87948;-45
2022/05/31 05:16:58;;;;;;;;;;;;;;;;;;5045263;27;88091;-44
2022/05/31 05:19:23;;;;;;;;;;;;;;;;;;5045753;27;87170;-44
2022/05/31 05:21:49;;;;;;;;;;;;;;;;;;5045710;27;87118;-45
2022/05/31 05:24:15;;;;;;;;;;;;;;;;;;5045168;27;87131;-45
2022/05/31 05:26:41;;;;;;;;;;;;;;;;;;5045427;27;87228;-45
2022/05/31 05:31:56;;;;;;;;;;;;;;;;;;5046519;28;86310;-44
2022/05/31 05:34:22;;;;;;;;;;;;;;;;;;5045307;28;87483;-44
2022/05/31 05:36:48;;;;;;;;;;;;;;;;;;5044671;27;89429;-43
2022/05/31 05:39:14;;;;;;;;;;;;;;;;;;5044356;27;88108;-44
2022/05/31 05:41:40;;;;;;;;;;;;;;;;;;5045019;27;87895;-45
2022/05/31 05:44:06;;;;;;;;;;;;;;;;;;5044472;28;89430;-45
2022/05/31 05:46:32;;;;;;;;;;;;;;;;;;5045285;27;87076;-47
2022/05/31 05:48:58;;;;;;;;;;;;;;;;;;5045103;27;87911;-44
2022/05/31 05:51:24;;;;;;;;;;;;;;;;;;5044565;27;87942;-45
2022/05/31 05:53:50;;;;;;;;;;;;;;;;;;5046899;27;87083;-45
2022/05/31 05:56:15;;;;;;;;;;;;;;;;;;5044829;27;87314;-45
2022/05/31 05:58:41;;;;;;;;;;;;;;;;;;5045260;27;87362;-45
2022/05/31 06:01:07;;;;;;;;;;;;;;;;;;5045060;27;86965;-43
2022/05/31 06:03:33;;;;;;;;;;;;;;;;;;5043715;27;89191;-44
2022/05/31 06:05:59;;;;;;;;;;;;;;;;;;5044908;27;87022;-45
2022/05/31 06:08:25;;;;;;;;;;;;;;;;;;5044817;27;87139;-43
2022/05/31 06:10:51;;;;;;;;;;;;;;;;;;5044413;27;88151;-43
2022/05/31 06:13:17;;;;;;;;;;;;;;;;;;5044746;27;87245;-43
2022/05/31 06:15:42;;;;;;;;;;;;;;;;;;5047344;27;87081;-43
2022/05/31 06:18:08;;;;;;;;;;;;;;;;;;5044731;27;86884;-43
2022/05/31 06:20:34;;;;;;;;;;;;;;;;;;5044964;27;86193;-45
2022/05/31 06:23:00;;;;;;;;;;;;;;;;;;5044371;27;88107;-44
2022/05/31 06:25:26;;;;;;;;;;;;;;;;;;5044340;27;87140;-45
2022/05/31 06:27:52;;;;;;;;;;;;;;;;;;5044085;27;87938;-45
2022/05/31 06:30:18;;;;;;;;;;;;;;;;;;5043987;27;88667;-47
2022/05/31 06:32:44;;;;;;;;;;;;;;;;;;5044532;27;87661;-47
2022/05/31 06:35:10;;;;;;;;;;;;;;;;;;5044460;27;87172;-44
2022/05/31 06:37:36;;;;;;;;;;;;;;;;;;5046823;27;87908;-44
2022/05/31 06:40:02;;;;;;;;;;;;;;;;;;5043839;28;88858;-46
2022/05/31 06:42:28;;;;;;;;;;;;;;;;;;5044071;27;88115;-46
2022/05/31 06:44:54;;;;;;;;;;;;;;;;;;5044612;28;86447;-45
2022/05/31 06:47:20;;;;;;;;;;;;;;;;;;5043987;27;87425;-43
2022/05/31 06:49:46;;;;;;;;;;;;;;;;;;5043858;27;87848;-43
2022/05/31 06:57:41;;;;;;;;;;;;;;;;;;5042128;28;87004;-45
2022/05/31 07:00:07;;;;;;;;;;;;;;;;;;5047108;27;87176;-44
2022/05/31 07:02:33;;;;;;;;;;;;;;;;;;5043728;27;88039;-45
2022/05/31 07:04:58;;;;;;;;;;;;;;;;;;5043839;27;87160;-46
2022/05/31 07:07:24;;;;;;;;;;;;;;;;;;5043180;27;86999;-45
2022/05/31 07:09:50;;;;;;;;;;;;;;;;;;5044173;27;87248;-46
2022/05/31 07:12:16;;;;;;;;;;;;;;;;;;5043761;27;87419;-44
2022/05/31 07:14:42;;;;;;;;;;;;;;;;;;5043914;27;87287;-45
2022/05/31 07:17:08;;;;;;;;;;;;;;;;;;5042506;27;89046;-44
2022/05/31 07:19:34;;;;;;;;;;;;;;;;;;5043707;27;87173;-44
2022/05/31 07:22:00;;;;;;;;;;;;;;;;;;5045986;27;86962;-44
2022/05/31 07:24:26;;;;;;;;;;;;;;;;;;5043363;27;87095;-44
2022/05/31 07:26:51;;;;;;;;;;;;;;;;;;5043549;27;87058;-44
2022/05/31 07:29:17;;;;;;;;;;;;;;;;;;5043078;27;89672;-44
2022/05/31 07:31:44;;;;;;;;;;;;;;;;;;5043494;27;87139;-45
2022/05/31 07:34:10;;;;;;;;;;;;;;;;;;5043848;27;88407;-44
2022/05/31 07:36:36;;;;;;;;;;;;;;;;;;5042816;27;87818;-44
2022/05/31 07:39:02;;;;;;;;;;;;;;;;;;5043652;27;87204;-43
2022/05/31 07:41:29;;;;;;;;;;;;;;;;;;5045284;27;88409;-44
2022/05/31 07:43:54;;;;;;;;;;;;;;;;;;5043338;27;87099;-44
2022/05/31 07:46:20;;;;;;;;;;;;;;;;;;5043453;27;86998;-45
2022/05/31 07:48:46;;;;;;;;;;;;;;;;;;5043027;27;88063;-44
2022/05/31 07:51:12;;;;;;;;;;;;;;;;;;5042441;27;87188;-43
2022/05/31 07:53:38;;;;;;;;;;;;;;;;;;5043274;27;86787;-43
2022/05/31 07:56:07;;;;;;;;;;;;;;;;;;5042772;27;87939;-46
2022/05/31 07:58:33;;;;;;;;;;;;;;;;;;5043713;27;86370;-43
2022/05/31 08:00:59;;;;;;;;;;;;;;;;;;5042778;27;87407;-44
2022/05/31 08:03:25;;;;;;;;;;;;;;;;;;5045668;27;87823;-43
2022/05/31 08:05:51;;;;;;;;;;;;;;;;;;5042028;27;88375;-44
2022/05/31 08:08:17;;;;;;;;;;;;;;;;;;5042382;27;87877;-45
2022/05/31 08:10:42;;;;;;;;;;;;;;;;;;5042992;27;87100;-44
2022/05/31 08:13:09;;;;;;;;;;;;;;;;;;5043014;27;86968;-43
2022/05/31 08:15:35;;;;;;;;;;;;;;;;;;5042469;27;89118;-45
2022/05/31 08:18:01;;;;;;;;;;;;;;;;;;5042461;27;86954;-45
2022/05/31 08:20:27;;;;;;;;;;;;;;;;;;5042604;28;86952;-45
2022/05/31 08:22:53;;;;;;;;;;;;;;;;;;5043243;27;86385;-45
2022/05/31 08:25:19;;;;;;;;;;;;;;;;;;5045827;27;87438;-44
2022/05/31 08:27:45;;;;;;;;;;;;;;;;;;5042101;27;89339;-45
2022/05/31 08:30:11;;;;;;;;;;;;;;;;;;5042247;27;88176;-45
2022/05/31 08:32:37;;;;;;;;;;;;;;;;;;5042822;27;87928;-43
2022/05/31 08:35:03;;;;;;;;;;;;;;;;;;5042298;27;87932;-44
2022/05/31 08:37:30;;;;;;;;;;;;;;;;;;5042336;27;87039;-44
2022/05/31 08:39:56;;;;;;;;;;;;;;;;;;5042517;27;88311;-43
2022/05/31 08:42:22;;;;;;;;;;;;;;;;;;5042276;27;88236;-46
2022/05/31 08:44:48;;;;;;;;;;;;;;;;;;5042608;27;87023;-43
2022/05/31 08:47:14;;;;;;;;;;;;;;;;;;5045722;27;86974;-43
2022/05/31 08:52:24;;;;;;;;;;;;;;;;;;5042119;28;87015;-44
2022/05/31 08:57:35;;;;;;;;;;;;;;;;;;5041748;28;86932;-46
2022/05/31 09:00:01;;;;;;;;;;;;;;;;;;5042366;27;86838;-43
2022/05/31 09:02:27;;;;;;;;;;;;;;;;;;5041556;27;87760;-46
2022/05/31 09:04:53;;;;;;;;;;;;;;;;;;5042126;27;87079;-43
2022/05/31 09:07:19;;;;;;;;;;;;;;;;;;5042052;27;87123;-46
2022/05/31 09:09:44;;;;;;;;;;;;;;;;;;5044787;27;87985;-45
2022/05/31 09:12:10;;;;;;;;;;;;;;;;;;5042655;27;86976;-44
2022/05/31 09:14:36;;;;;;;;;;;;;;;;;;5042199;27;88595;-44
2022/05/31 09:17:02;;;;;;;;;;;;;;;;;;5041748;27;87156;-45
2022/05/31 09:19:28;;;;;;;;;;;;;;;;;;5041729;27;87875;-48
2022/05/31 09:21:54;;;;;;;;;;;;;;;;;;5041652;27;87248;-44
2022/05/31 09:24:20;;;;;;;;;;;;;;;;;;5042010;27;87157;-43
2022/05/31 09:26:47;;;;;;;;;;;;;;;;;;5042099;27;86963;-46
2022/05/31 09:29:13;;;;;;;;;;;;;;;;;;5042945;28;89397;-45
2022/05/31 09:31:39;;;;;;;;;;;;;;;;;;5048001;27;87048;-44
2022/05/31 09:34:06;;;;;;;;;;;;;;;;;;5045251;27;87877;-44
2022/05/31 09:36:32;;;;;;;;;;;;;;;;;;5045929;27;86412;-44
2022/05/31 09:38:58;;;;;;;;;;;;;;;;;;5045361;27;87104;-44
2022/05/31 09:41:24;;;;;;;;;;;;;;;;;;5044871;27;87878;-44
2022/05/31 09:43:50;;;;;;;;;;;;;;;;;;5044366;27;88144;-45
2022/05/31 09:46:16;;;;;;;;;;;;;;;;;;5045131;27;87368;-46
2022/05/31 09:48:42;;;;;;;;;;;;;;;;;;5044999;27;88059;-46
2022/05/31 09:51:07;;;;;;;;;;;;;;;;;;5047690;27;87237;-45
2022/05/31 09:59:02;;;;;;;;;;;;;;;;;;5042240;28;87056;-45
2022/05/31 10:01:29;;;;;;;;;;;;;;;;;;5045008;28;88102;-44
2022/05/31 10:03:55;;;;;;;;;;;;;;;;;;5044751;27;86994;-44
2022/05/31 10:06:20;;;;;;;;;;;;;;;;;;5045096;27;87154;-47
2022/05/31 10:08:52;;;;;;;;;;;;;;;;;;5043640;27;88260;-44
2022/05/31 10:11:18;;;;;;;;;;;;;;;;;;5044072;27;87070;-47
2022/05/31 10:13:43;;;;;;;;;;;;;;;;;;5047430;27;87135;-45
2022/05/31 10:16:10;;;;;;;;;;;;;;;;;;5044800;27;87269;-44
2022/05/31 10:18:39;;;;;;;;;;;;;;;;;;5044835;27;86878;-44
2022/05/31 10:21:05;;;;;;;;;;;;;;;;;;5044102;27;89294;-46
2022/05/31 10:23:31;;;;;;;;;;;;;;;;;;5044739;27;87133;-45
2022/05/31 10:25:57;;;;;;;;;;;;;;;;;;5045107;27;86911;-43
2022/05/31 10:28:23;;;;;;;;;;;;;;;;;;5044145;27;87907;-44
2022/05/31 10:30:49;;;;;;;;;;;;;;;;;;5044359;27;87575;-45
2022/05/31 10:33:15;;;;;;;;;;;;;;;;;;5043674;28;88337;-47
2022/05/31 10:35:42;;;;;;;;;;;;;;;;;;5046961;27;87660;-44
2022/05/31 10:38:11;;;;;;;;;;;;;;;;;;5044258;28;88535;-47
2022/05/31 10:40:37;;;;;;;;;;;;;;;;;;5043397;27;88151;-43
2022/05/31 10:43:03;;;;;;;;;;;;;;;;;;5043993;27;87196;-46
2022/05/31 10:45:31;;;;;;;;;;;;;;;;;;5044218;27;86987;-43
2022/05/31 10:47:57;;;;;;;;;;;;;;;;;;5043553;27;89461;-45
2022/05/31 10:50:23;;;;;;;;;;;;;;;;;;5044048;27;86469;-44
2022/05/31 10:52:48;;;;;;;;;;;;;;;;;;5044373;27;86984;-43
2022/05/31 10:55:14;;;;;;;;;;;;;;;;;;5043750;27;88081;-45
2022/05/31 10:57:40;;;;;;;;;;;;;;;;;;5046875;27;88017;-45
2022/05/31 11:00:08;;;;;;;;;;;;;;;;;;5043498;27;88107;-44
2022/05/31 11:02:34;;;;;;;;;;;;;;;;;;5043633;28;87139;-44
2022/05/31 11:04:59;;;;;;;;;;;;;;;;;;5044153;27;86901;-44
2022/05/31 11:07:27;;;;;;;;;;;;;;;;;;5043415;27;87251;-45
2022/05/31 11:12:37;;;;;;;;;;;;;;;;;;5042037;28;86867;-43
2022/05/31 11:15:03;;;;;;;;;;;;;;;;;;5043872;27;87372;-46
2022/05/31 11:17:31;;;;;;;;;;;;;;;;;;5043480;28;87404;-45
2022/05/31 11:19:56;;;;;;;;;;;;;;;;;;5046108;27;88415;-44
2022/05/31 11:22:22;;;;;;;;;;;;;;;;;;5042837;27;88028;-47
2022/05/31 11:24:48;;;;;;;;;;;;;;;;;;5043698;27;87924;-47
2022/05/31 11:27:14;;;;;;;;;;;;;;;;;;5043351;27;88385;-43
2022/05/31 11:29:40;;;;;;;;;;;;;;;;;;5043663;27;87305;-44
2022/05/31 11:32:06;;;;;;;;;;;;;;;;;;5043625;27;86960;-45
2022/05/31 11:34:32;;;;;;;;;;;;;;;;;;5043143;27;87981;-46
2022/05/31 11:36:58;;;;;;;;;;;;;;;;;;5043187;27;87168;-44
2022/05/31 11:39:23;;;;;;;;;;;;;;;;;;5046616;27;86166;-45
2022/05/31 11:41:50;;;;;;;;;;;;;;;;;;5043547;27;87611;-45
2022/05/31 11:44:17;;;;;;;;;;;;;;;;;;5043263;27;88330;-44
2022/05/31 11:46:46;;;;;;;;;;;;;;;;;;5041995;27;90485;-43
2022/05/31 11:49:11;;;;;;;;;;;;;;;;;;5043012;27;87477;-45
2022/05/31 11:51:37;;;;;;;;;;;;;;;;;;5041380;27;87206;-44
2022/05/31 11:54:04;;;;;;;;;;;;;;;;;;5042768;28;89853;-46
2022/05/31 11:56:30;;;;;;;;;;;;;;;;;;5042893;27;87006;-46
2022/05/31 11:58:56;;;;;;;;;;;;;;;;;;5043286;27;86900;-44
2022/05/31 12:01:22;;;;;;;;;;;;;;;;;;5045736;27;87828;-44
2022/05/31 12:03:48;;;;;;;;;;;;;;;;;;5043573;27;87047;-45
2022/05/31 12:06:14;;;;;;;;;;;;;;;;;;5042597;28;87960;-46
2022/05/31 12:08:40;;;;;;;;;;;;;;;;;;5042965;27;88261;-44
2022/05/31 12:11:06;;;;;;;;;;;;;;;;;;5042354;27;87973;-45
2022/05/31 12:13:31;;;;;;;;;;;;;;;;;;5042256;28;89400;-47
2022/05/31 12:15:57;;;;;;;;;;;;;;;;;;5042873;27;87313;-47
2022/05/31 12:18:23;;;;;;;;;;;;;;;;;;5042853;27;86876;-45
2022/05/31 12:20:49;;;;;;;;;;;;;;;;;;5042348;27;88195;-45
2022/05/31 12:23:15;;;;;;;;;;;;;;;;;;5045688;27;86914;-43
2022/05/31 12:25:41;;;;;;;;;;;;;;;;;;5042710;27;87942;-44
2022/05/31 12:28:07;;;;;;;;;;;;;;;;;;5042913;27;86429;-46
2022/05/31 12:30:32;;;;;;;;;;;;;;;;;;5042715;27;86975;-45
2022/05/31 12:32:58;;;;;;;;;;;;;;;;;;5042562;27;88503;-44
2022/05/31 12:35:24;;;;;;;;;;;;;;;;;;5041954;27;88312;-44
2022/05/31 12:37:50;;;;;;;;;;;;;;;;;;5042789;27;87886;-45
2022/05/31 12:40:16;;;;;;;;;;;;;;;;;;5042315;27;87119;-44
2022/05/31 12:42:42;;;;;;;;;;;;;;;;;;5042961;27;88224;-45
2022/05/31 12:45:08;;;;;;;;;;;;;;;;;;5045283;27;86938;-43
2022/05/31 12:47:34;;;;;;;;;;;;;;;;;;5042602;27;86962;-44
2022/05/31 12:50:04;;;;;;;;;;;;;;;;;;5042689;27;87030;-42
2022/05/31 12:54:56;;;;;;;;;;;;;;;;;;5042684;27;87359;-45
2022/05/31 12:57:22;;;;;;;;;;;;;;;;;;5042084;28;88142;-43
2022/05/31 12:59:48;;;;;;;;;;;;;;;;;;5041328;27;88829;-45
2022/05/31 13:02:14;;;;;;;;;;;;;;;;;;5042362;27;87292;-46
2022/05/31 13:04:40;;;;;;;;;;;;;;;;;;5046064;27;87293;-46
2022/05/31 13:07:07;;;;;;;;;;;;;;;;;;5047896;27;89082;-45
2022/05/31 13:09:33;;;;;;;;;;;;;;;;;;5045733;27;87048;-45
2022/05/31 13:20:13;;;;;;;;;;;;;;;;;;5043284;28;87154;-43
2022/05/31 13:22:40;;;;;;;;;;;;;;;;;;5045229;27;87130;-46
2022/05/31 13:25:06;;;;;;;;;;;;;;;;;;5044719;27;87924;-47
2022/05/31 13:27:32;;;;;;;;;;;;;;;;;;5045308;27;87946;-46
2022/05/31 13:29:57;;;;;;;;;;;;;;;;;;5048285;27;87158;-43
2022/05/31 13:32:23;;;;;;;;;;;;;;;;;;5045123;27;88125;-46
2022/05/31 13:34:49;;;;;;;;;;;;;;;;;;5045479;27;87223;-46
2022/05/31 13:37:16;;;;;;;;;;;;;;;;;;5045186;27;88325;-44
2022/05/31 13:39:42;;;;;;;;;;;;;;;;;;5044913;28;88004;-45
2022/05/31 13:42:07;;;;;;;;;;;;;;;;;;5045684;27;86405;-46
2022/05/31 13:44:33;;;;;;;;;;;;;;;;;;5045235;27;86978;-46
2022/05/31 13:46:59;;;;;;;;;;;;;;;;;;5044736;27;88063;-45
2022/05/31 13:49:25;;;;;;;;;;;;;;;;;;5047708;27;88430;-43
2022/05/31 13:51:51;;;;;;;;;;;;;;;;;;5044194;27;88290;-48
2022/05/31 13:54:17;;;;;;;;;;;;;;;;;;5045263;27;87434;-44
2022/05/31 13:56:43;;;;;;;;;;;;;;;;;;5045033;27;87080;-44
2022/05/31 13:59:10;;;;;;;;;;;;;;;;;;5044700;27;87217;-44
2022/05/31 14:01:36;;;;;;;;;;;;;;;;;;5044833;27;87121;-44
2022/05/31 14:04:02;;;;;;;;;;;;;;;;;;5045085;27;87058;-43
2022/05/31 14:06:28;;;;;;;;;;;;;;;;;;5045081;27;87155;-44
2022/05/31 14:08:56;;;;;;;;;;;;;;;;;;5044846;27;87129;-43
2022/05/31 14:11:22;;;;;;;;;;;;;;;;;;5047314;27;88470;-44
2022/05/31 14:13:48;;;;;;;;;;;;;;;;;;5043626;27;87943;-48
2022/05/31 14:16:16;;;;;;;;;;;;;;;;;;5044159;28;89303;-45
2022/05/31 14:18:41;;;;;;;;;;;;;;;;;;5044133;27;89278;-46
2022/05/31 14:21:08;;;;;;;;;;;;;;;;;;5044325;27;87235;-44
2022/05/31 14:23:34;;;;;;;;;;;;;;;;;;5044434;27;88213;-43
2022/05/31 14:26:00;;;;;;;;;;;;;;;;;;5044245;27;87238;-46
2022/05/31 14:28:25;;;;;;;;;;;;;;;;;;5044284;27;87252;-47
2022/05/31 14:30:51;;;;;;;;;;;;;;;;;;5044929;27;87525;-44
2022/05/31 14:33:18;;;;;;;;;;;;;;;;;;5046821;27;88944;-43
2022/05/31 14:35:49;;;;;;;;;;;;;;;;;;5044042;27;88486;-46
2022/05/31 14:38:15;;;;;;;;;;;;;;;;;;5043106;27;90367;-45
2022/05/31 14:40:40;;;;;;;;;;;;;;;;;;5044199;27;87340;-43
2022/05/31 14:43:06;;;;;;;;;;;;;;;;;;5043743;27;88005;-45
2022/05/31 14:45:32;;;;;;;;;;;;;;;;;;5043744;27;89293;-45
2022/05/31 14:47:58;;;;;;;;;;;;;;;;;;5044095;27;87219;-43
2022/05/31 14:50:27;;;;;;;;;;;;;;;;;;5043785;27;88286;-48
2022/05/31 14:52:53;;;;;;;;;;;;;;;;;;5043676;27;89430;-48
2022/05/31 14:55:19;;;;;;;;;;;;;;;;;;5047089;27;86425;-45
2022/05/31 15:00:30;;;;;;;;;;;;;;;;;;5042238;28;87171;-43
2022/05/31 15:02:56;;;;;;;;;;;;;;;;;;5043549;27;88605;-43
2022/05/31 15:05:23;;;;;;;;;;;;;;;;;;5043432;27;89507;-43
2022/05/31 15:07:48;;;;;;;;;;;;;;;;;;5043205;27;87178;-43
2022/05/31 15:10:14;;;;;;;;;;;;;;;;;;5043362;27;87224;-44
2022/05/31 15:20:54;;;;;;;;;;;;;;;;;;5041277;28;86638;-45
2022/05/31 15:23:21;;;;;;;;;;;;;;;;;;5043101;27;87716;-44
2022/05/31 15:25:47;;;;;;;;;;;;;;;;;;5042857;27;88308;-43
2022/05/31 15:28:12;;;;;;;;;;;;;;;;;;5042495;27;88181;-43
2022/05/31 15:30:38;;;;;;;;;;;;;;;;;;5042808;27;89424;-44
2022/05/31 15:33:04;;;;;;;;;;;;;;;;;;5042374;27;89340;-43
2022/05/31 15:35:30;;;;;;;;;;;;;;;;;;5042605;27;87279;-43
2022/05/31 15:37:56;;;;;;;;;;;;;;;;;;5043057;27;88337;-42
2022/05/31 15:40:22;;;;;;;;;;;;;;;;;;5045729;27;89736;-43
2022/05/31 15:42:48;;;;;;;;;;;;;;;;;;5043034;27;88140;-43
2022/05/31 15:45:14;;;;;;;;;;;;;;;;;;5043002;27;88574;-43
2022/05/31 15:47:40;;;;;;;;;;;;;;;;;;5042861;27;87375;-42
2022/05/31 15:50:05;;;;;;;;;;;;;;;;;;5042695;27;88449;-42
2022/05/31 15:52:31;;;;;;;;;;;;;;;;;;5041559;27;90194;-42
2022/05/31 15:54:57;;;;;;;;;;;;;;;;;;5043039;27;87026;-42
2022/05/31 15:57:25;;;;;;;;;;;;;;;;;;5042922;27;87039;-42
2022/05/31 15:59:51;;;;;;;;;;;;;;;;;;5045243;27;89288;-42
2022/05/31 16:02:16;;;;;;;;;;;;;;;;;;5042804;27;88507;-42
2022/05/31 16:04:42;;;;;;;;;;;;;;;;;;5042359;27;89378;-42
2022/05/31 16:07:08;;;;;;;;;;;;;;;;;;5042470;27;87110;-42
2022/05/31 16:09:34;;;;;;;;;;;;;;;;;;5041899;28;90459;-42
2022/05/31 16:12:00;;;;;;;;;;;;;;;;;;5042118;27;90161;-42
2022/05/31 16:14:27;;;;;;;;;;;;;;;;;;5042325;27;87162;-41
2022/05/31 16:16:53;;;;;;;;;;;;;;;;;;5041675;27;87916;-42
2022/05/31 16:19:19;;;;;;;;;;;;;;;;;;5041690;27;89211;-42
2022/05/31 16:21:45;;;;;;;;;;;;;;;;;;5045590;27;87107;-42
2022/05/31 16:24:11;;;;;;;;;;;;;;;;;;5042182;27;88578;-42
2022/05/31 16:26:37;;;;;;;;;;;;;;;;;;5042357;27;87014;-42
2022/05/31 16:29:07;;;;;;;;;;;;;;;;;;5042407;27;88482;-42
2022/05/31 16:31:33;;;;;;;;;;;;;;;;;;5041989;27;90157;-42
2022/05/31 16:33:59;;;;;;;;;;;;;;;;;;5042493;27;86515;-42
2022/05/31 16:36:25;;;;;;;;;;;;;;;;;;5042323;27;86964;-42
2022/05/31 16:41:36;;;;;;;;;;;;;;;;;;5044271;28;87975;-42
2022/05/31 16:44:02;;;;;;;;;;;;;;;;;;5048278;27;89373;-42
2022/05/31 16:46:28;;;;;;;;;;;;;;;;;;5045605;28;87979;-42
2022/05/31 16:48:54;;;;;;;;;;;;;;;;;;5045492;27;88260;-42
2022/05/31 16:51:20;;;;;;;;;;;;;;;;;;5044723;27;89429;-42
2022/05/31 16:53:46;;;;;;;;;;;;;;;;;;5045589;27;87151;-42
2022/05/31 16:56:13;;;;;;;;;;;;;;;;;;5045480;27;88221;-42
2022/05/31 16:58:39;;;;;;;;;;;;;;;;;;5045609;27;88481;-42
2022/05/31 17:01:05;;;;;;;;;;;;;;;;;;5045050;27;87112;-42
2022/05/31 17:03:31;;;;;;;;;;;;;;;;;;5045241;27;88428;-42
2022/05/31 17:05:57;;;;;;;;;;;;;;;;;;5047275;28;90290;-42
2022/05/31 17:16:37;;;;;;;;;;;;;;;;;;5043853;28;86836;-42
2022/05/31 17:19:03;;;;;;;;;;;;;;;;;;5044861;27;89746;-42
2022/05/31 17:21:29;;;;;;;;;;;;;;;;;;5045150;27;87103;-42
2022/05/31 17:23:55;;;;;;;;;;;;;;;;;;5045461;28;88235;-42
2022/05/31 17:26:21;;;;;;;;;;;;;;;;;;5044601;27;89368;-42
2022/05/31 17:28:47;;;;;;;;;;;;;;;;;;5048105;27;87199;-42
2022/05/31 17:31:13;;;;;;;;;;;;;;;;;;5043824;28;90793;-42
2022/05/31 17:33:39;;;;;;;;;;;;;;;;;;5044987;27;86909;-42
2022/05/31 17:36:05;;;;;;;;;;;;;;;;;;5044756;27;88487;-42
2022/05/31 17:38:31;;;;;;;;;;;;;;;;;;5044743;28;88108;-42